Time;durP1;ratioP1;P1;durP2;ratioP2;P2;SDS_P1;SDS_P2;PMS_P1;PMS_P2;Temp;Humidity;BMP_temperature;BMP_pressure;BME280_temperature;BME280_humidity;BME280_pressure;Samples;Min_cycle;Max_cycle;Signal;HPM_P1;HPM_P2
2023/06/24 00:02:23;;;;;;;;;;;;;;;18.71;80.19;102390.69;5045845;28;19945;-66
2023/06/24 00:04:49;;;;;;;;;;;;;;;18.68;79.50;102393.78;5049408;28;19996;-66
2023/06/24 00:07:14;;;;;;;;;;;;;;;18.66;78.96;102385.06;5039386;28;20027;-66
2023/06/24 00:09:39;;;;;;;;;;;;;;;18.69;78.54;102392.75;5039267;28;19928;-66
2023/06/24 00:12:04;;;;;;;;;;;;;;;18.71;78.97;102396.09;5046149;28;19962;-65
2023/06/24 00:14:30;;;;;;;;;;;;;;;18.70;79.26;102393.59;5041781;28;19925;-64
2023/06/24 00:16:56;;;;;;;;;;;;;;;18.73;79.08;102393.22;5043371;28;19920;-65
2023/06/24 00:19:22;;;;;;;;;;;;;;;18.74;78.89;102395.72;5046197;28;20396;-66
2023/06/24 00:21:48;;;;;;;;;;;;;;;18.73;78.49;102404.81;5041966;28;20477;-66
2023/06/24 00:24:13;;;;;;;;;;;;;;;18.72;77.80;102399.63;5044364;28;19964;-66
2023/06/24 00:26:38;;;;;;;;;;;;;;;18.73;77.58;102395.91;5048393;28;20015;-67
2023/06/24 00:29:03;;;;;;;;;;;;;;;18.74;77.35;102403.78;5043543;28;19917;-66
2023/06/24 00:31:29;;;;;;;;;;;;;;;18.74;76.57;102398.41;5043678;28;20394;-64
2023/06/24 00:33:54;;;;;;;;;;;;;;;18.76;76.24;102411.66;5049360;28;19925;-65
2023/06/24 00:36:20;;;;;;;;;;;;;;;18.77;76.02;102408.78;5048821;28;20015;-66
2023/06/24 00:38:45;;;;;;;;;;;;;;;18.77;75.73;102406.09;5045445;28;20442;-64
2023/06/24 00:41:10;;;;;;;;;;;;;;;18.79;75.32;102408.59;5041673;28;19932;-65
2023/06/24 00:43:35;;;;;;;;;;;;;;;18.79;75.05;102408.59;5044451;28;19917;-65
2023/06/24 00:46:01;;;;;;;;;;;;;;;18.83;74.79;102410.75;5042963;28;19981;-66
2023/06/24 00:48:26;;;;;;;;;;;;;;;18.87;74.64;102406.66;5043124;28;20371;-64
2023/06/24 00:50:51;;;;;;;;;;;;;;;18.90;74.51;102399.25;5042241;28;19924;-65
2023/06/24 00:53:16;;;;;;;;;;;;;;;18.93;74.51;102406.94;5042085;28;19917;-65
2023/06/24 00:55:42;;;;;;;;;;;;;;;18.96;74.34;102406.56;5042104;28;20442;-65
2023/06/24 00:58:07;;;;;;;;;;;;;;;18.98;74.02;102401.81;5041838;28;19925;-64
2023/06/24 01:00:34;;;;;;;;;;;;;;;18.95;74.02;102399.50;5042536;28;19924;-66
2023/06/24 01:02:59;;;;;;;;;;;;;;;18.92;73.58;102403.41;5042214;28;19920;-65
2023/06/24 01:05:25;;;;;;;;;;;;;;;18.93;73.47;102396.16;5045347;28;19939;-65
2023/06/24 01:07:55;;;;;;;;;;;;;;;18.93;73.17;102404.25;5046544;28;19924;-66
2023/06/24 01:10:22;;;;;;;;;;;;;;;18.93;73.23;102390.78;5045889;28;20326;-66
2023/06/24 01:12:47;;;;;;;;;;;;;;;18.92;73.03;102391.81;5044888;28;19918;-66
2023/06/24 01:15:12;;;;;;;;;;;;;;;18.87;72.46;102387.81;5049715;28;19941;-66
2023/06/24 01:17:43;;;;;;;;;;;;;;;18.82;72.59;102392.94;5040761;28;20208;-66
2023/06/24 01:20:17;;;;;;;;;;;;;;;18.77;72.44;102394.50;5047724;28;20263;-66
2023/06/24 01:23:01;;;;;;;;;;;;;;;18.69;71.77;102384.69;5044053;28;20397;-66
2023/06/24 01:25:44;;;;;;;;;;;;;;;18.66;71.73;102384.22;5036566;28;19924;-66
2023/06/24 01:28:23;;;;;;;;;;;;;;;18.63;71.61;102388.13;5042967;28;20352;-65
2023/06/24 01:30:51;;;;;;;;;;;;;;;18.62;71.58;102378.38;5043268;28;19927;-66
2023/06/24 01:33:23;;;;;;;;;;;;;;;18.62;71.45;102374.81;5044009;28;19944;-66
2023/06/24 01:35:48;;;;;;;;;;;;;;;18.62;71.31;102375.69;5045738;28;19917;-66
2023/06/24 01:38:21;;;;;;;;;;;;;;;18.57;71.19;102386.97;5040811;28;20306;-66
2023/06/24 01:40:48;;;;;;;;;;;;;;;18.44;71.20;102380.56;5041148;28;19920;-66
2023/06/24 01:43:14;;;;;;;;;;;;;;;18.36;71.05;102372.59;5040251;28;19963;-66
2023/06/24 01:45:45;;;;;;;;;;;;;;;18.34;71.11;102372.78;5044445;28;19916;-66
2023/06/24 01:48:15;;;;;;;;;;;;;;;18.37;71.17;102366.19;5048499;28;20382;-65
2023/06/24 01:50:43;;;;;;;;;;;;;;;18.39;71.33;102364.97;5041348;28;19970;-66
2023/06/24 01:53:08;;;;;;;;;;;;;;;18.40;71.20;102371.19;5042862;28;19971;-66
2023/06/24 01:55:36;;;;;;;;;;;;;;;18.40;71.43;102365.81;5038515;28;19956;-65
2023/06/24 01:58:02;;;;;;;;;;;;;;;18.38;71.18;102367.84;5043351;28;19921;-66
2023/06/24 02:00:28;;;;;;;;;;;;;;;18.30;71.20;102376.00;5035929;28;19928;-65
2023/06/24 02:02:54;;;;;;;;;;;;;;;18.17;71.21;102366.72;5046671;28;20027;-66
2023/06/24 02:05:20;;;;;;;;;;;;;;;18.08;71.48;102375.88;5043244;28;20456;-65
2023/06/24 02:07:47;;;;;;;;;;;;;;;17.99;71.47;102360.84;5044885;28;20018;-66
2023/06/24 02:10:13;;;;;;;;;;;;;;;17.92;71.79;102363.41;5044444;28;20372;-65
2023/06/24 02:12:39;;;;;;;;;;;;;;;17.88;71.90;102358.59;5046444;28;19978;-64
2023/06/24 02:15:06;;;;;;;;;;;;;;;17.84;71.89;102355.44;5042100;28;19921;-65
2023/06/24 02:17:32;;;;;;;;;;;;;;;17.82;72.16;102360.16;5043392;28;20011;-66
2023/06/24 02:19:57;;;;;;;;;;;;;;;17.78;72.31;102360.69;5039470;28;20036;-66
2023/06/24 02:22:23;;;;;;;;;;;;;;;17.71;72.25;102368.66;5047220;28;19920;-66
2023/06/24 02:24:49;;;;;;;;;;;;;;;17.63;72.49;102366.81;5047408;28;19917;-64
2023/06/24 02:27:15;;;;;;;;;;;;;;;17.56;72.41;102365.03;5044442;28;19973;-66
2023/06/24 02:29:41;;;;;;;;;;;;;;;17.50;72.20;102374.66;5039014;28;19917;-65
2023/06/24 02:32:07;;;;;;;;;;;;;;;17.49;72.38;102366.78;5043191;28;20039;-66
2023/06/24 02:34:32;;;;;;;;;;;;;;;17.50;72.01;102369.28;5044303;28;20683;-66
2023/06/24 02:36:57;;;;;;;;;;;;;;;17.56;71.93;102370.41;5048240;28;19917;-66
2023/06/24 02:39:22;;;;;;;;;;;;;;;17.58;72.41;102371.06;5038079;28;19936;-66
2023/06/24 02:41:49;;;;;;;;;;;;;;;17.50;72.39;102374.66;5041926;28;19916;-66
2023/06/24 02:44:14;;;;;;;;;;;;;;;17.42;72.35;102376.56;5043252;28;19928;-66
2023/06/24 02:46:40;;;;;;;;;;;;;;;17.37;72.41;102366.34;5044129;28;19936;-66
2023/06/24 02:49:06;;;;;;;;;;;;;;;17.35;72.84;102360.34;5047897;28;19916;-65
2023/06/24 02:51:32;;;;;;;;;;;;;;;17.31;73.02;102359.81;5044617;28;19917;-66
2023/06/24 02:53:58;;;;;;;;;;;;;;;17.31;72.94;102370.56;5051053;28;19927;-64
2023/06/24 02:56:25;;;;;;;;;;;;;;;17.30;73.37;102365.38;5040305;28;19925;-66
2023/06/24 02:58:52;;;;;;;;;;;;;;;17.24;73.23;102369.59;5047645;28;20377;-65
2023/06/24 03:01:17;;;;;;;;;;;;;;;17.17;73.31;102367.81;5043635;28;19917;-66
2023/06/24 03:03:42;;;;;;;;;;;;;;;17.11;73.93;102371.22;5049553;28;19975;-66
2023/06/24 03:06:12;;;;;;;;;;;;;;;17.06;74.32;102370.88;5049686;28;20118;-65
2023/06/24 03:08:37;;;;;;;;;;;;;;;16.98;74.77;102369.91;5049376;28;19950;-66
2023/06/24 03:11:02;;;;;;;;;;;;;;;16.95;75.09;102369.44;5049317;28;20368;-66
2023/06/24 03:13:27;;;;;;;;;;;;;;;16.88;75.43;102382.72;5050384;28;20262;-66
2023/06/24 03:15:52;;;;;;;;;;;;;;;16.83;76.45;102382.41;5048597;28;19999;-65
2023/06/24 03:18:19;;;;;;;;;;;;;;;16.78;76.52;102387.47;5050211;28;20389;-65
2023/06/24 03:20:45;;;;;;;;;;;;;;;16.73;76.75;102387.13;5046969;28;19928;-65
2023/06/24 03:23:10;;;;;;;;;;;;;;;16.68;77.16;102371.56;5043375;28;19917;-65
2023/06/24 03:25:35;;;;;;;;;;;;;;;16.65;76.83;102363.00;5047040;28;19917;-66
2023/06/24 03:28:03;;;;;;;;;;;;;;;16.63;77.05;102363.16;5046867;28;19924;-65
2023/06/24 03:30:28;;;;;;;;;;;;;;;16.61;76.80;102358.97;5043448;28;19917;-65
2023/06/24 03:32:53;;;;;;;;;;;;;;;16.60;77.23;102360.81;5042738;28;20570;-65
2023/06/24 03:35:19;;;;;;;;;;;;;;;16.59;77.70;102369.06;5046139;28;19970;-65
2023/06/24 03:37:44;;;;;;;;;;;;;;;16.55;78.23;102375.78;5043365;28;19912;-66
2023/06/24 03:40:09;;;;;;;;;;;;;;;16.54;78.42;102376.78;5044479;28;19917;-66
2023/06/24 03:42:34;;;;;;;;;;;;;;;16.53;78.57;102372.44;5042295;28;20089;-66
2023/06/24 03:45:00;;;;;;;;;;;;;;;16.50;79.23;102368.25;5050828;28;19979;-65
2023/06/24 03:47:25;;;;;;;;;;;;;;;16.48;79.10;102372.09;5039622;28;19928;-65
2023/06/24 03:49:50;;;;;;;;;;;;;;;16.42;79.64;102371.75;5052829;28;19931;-65
2023/06/24 03:52:16;;;;;;;;;;;;;;;16.39;79.33;102377.47;5045221;28;19921;-66
2023/06/24 03:54:41;;;;;;;;;;;;;;;16.32;79.83;102370.28;5046092;28;19916;-66
2023/06/24 03:57:07;;;;;;;;;;;;;;;16.36;80.46;102376.97;5047847;28;20027;-64
2023/06/24 03:59:32;;;;;;;;;;;;;;;16.37;80.92;102375.97;5048361;28;19925;-65
2023/06/24 04:01:57;;;;;;;;;;;;;;;16.37;80.73;102379.50;5048464;28;19951;-66
2023/06/24 04:04:23;;;;;;;;;;;;;;;16.37;80.98;102376.81;5048726;28;20356;-65
2023/06/24 04:06:48;;;;;;;;;;;;;;;16.39;80.72;102379.31;5029552;28;19948;-66
2023/06/24 04:09:13;;;;;;;;;;;;;;;16.33;80.71;102372.81;5046367;28;19917;-66
2023/06/24 04:11:38;;;;;;;;;;;;;;;16.40;80.78;102394.41;5048037;28;19920;-64
2023/06/24 04:14:06;;;;;;;;;;;;;;;16.41;80.61;102383.50;5046523;28;19913;-66
2023/06/24 04:16:31;;;;;;;;;;;;;;;16.45;80.87;102385.84;5045342;28;19976;-65
2023/06/24 04:18:56;;;;;;;;;;;;;;;16.44;81.10;102387.69;5043111;28;19968;-65
2023/06/24 04:21:22;;;;;;;;;;;;;;;16.42;81.12;102385.16;5041176;28;20416;-66
2023/06/24 04:23:47;;;;;;;;;;;;;;;16.45;81.39;102380.47;5051943;28;20377;-65
2023/06/24 04:26:12;;;;;;;;;;;;;;;16.48;81.80;102388.16;5052777;28;19956;-65
2023/06/24 04:28:37;;;;;;;;;;;;;;;16.51;81.57;102387.84;5049721;28;19978;-65
2023/06/24 04:31:03;;;;;;;;;;;;;;;16.56;81.30;102386.31;5046576;28;19917;-65
2023/06/24 04:33:28;;;;;;;;;;;;;;;16.62;81.36;102391.00;5036253;28;20007;-66
2023/06/24 04:35:54;;;;;;;;;;;;;;;16.70;81.03;102387.47;5046048;28;20023;-65
2023/06/24 04:38:19;;;;;;;;;;;;;;;16.80;80.89;102381.94;5037868;28;19921;-66
2023/06/24 04:40:45;;;;;;;;;;;;;;;16.88;81.35;102388.09;5041997;28;19949;-66
2023/06/24 04:43:10;;;;;;;;;;;;;;;16.94;81.14;102384.69;5049744;28;20029;-65
2023/06/24 04:45:35;;;;;;;;;;;;;;;16.98;81.19;102386.03;5045590;28;19913;-65
2023/06/24 04:48:00;;;;;;;;;;;;;;;17.01;80.99;102392.88;5046335;28;19923;-66
2023/06/24 04:50:25;;;;;;;;;;;;;;;17.02;80.78;102395.38;5043438;28;19995;-65
2023/06/24 04:52:54;;;;;;;;;;;;;;;17.01;80.84;102400.94;5046763;28;19928;-66
2023/06/24 04:55:21;;;;;;;;;;;;;;;17.04;80.93;102395.22;5040903;28;19986;-66
2023/06/24 04:57:46;;;;;;;;;;;;;;;17.08;81.29;102401.09;5048325;28;19916;-66
2023/06/24 05:00:11;;;;;;;;;;;;;;;17.08;81.46;102399.25;5046846;28;19912;-64
2023/06/24 05:02:37;;;;;;;;;;;;;;;17.09;81.41;102394.72;5048186;28;19970;-65
2023/06/24 05:05:02;;;;;;;;;;;;;;;17.11;81.62;102406.09;5047002;28;20301;-65
2023/06/24 05:07:27;;;;;;;;;;;;;;;17.11;81.33;102395.38;5048453;28;20059;-66
2023/06/24 05:09:52;;;;;;;;;;;;;;;17.13;80.89;102393.34;5043352;28;19925;-66
2023/06/24 05:12:17;;;;;;;;;;;;;;;17.12;80.96;102395.19;5044421;28;20310;-65
2023/06/24 05:14:42;;;;;;;;;;;;;;;17.13;81.09;102396.88;5042254;28;19925;-64
2023/06/24 05:17:08;;;;;;;;;;;;;;;17.14;80.93;102397.69;5049355;28;19943;-65
2023/06/24 05:19:33;;;;;;;;;;;;;;;17.14;80.79;102384.28;5040969;28;19921;-65
2023/06/24 05:21:58;;;;;;;;;;;;;;;17.15;81.21;102389.47;5048807;28;20274;-65
2023/06/24 05:24:23;;;;;;;;;;;;;;;17.19;80.90;102390.78;5038867;28;19920;-65
2023/06/24 05:26:50;;;;;;;;;;;;;;;17.24;80.97;102398.31;5046154;28;20400;-66
2023/06/24 05:29:15;;;;;;;;;;;;;;;17.28;81.13;102391.56;5044436;28;20031;-65
2023/06/24 05:31:41;;;;;;;;;;;;;;;17.33;81.02;102391.88;5045988;28;20339;-66
2023/06/24 05:34:06;;;;;;;;;;;;;;;17.37;80.92;102395.91;5046202;28;19920;-65
2023/06/24 05:36:31;;;;;;;;;;;;;;;17.42;80.81;102406.09;5044314;28;19917;-65
2023/06/24 05:38:56;;;;;;;;;;;;;;;17.44;80.84;102396.00;5034986;28;19920;-65
2023/06/24 05:41:21;;;;;;;;;;;;;;;17.49;80.68;102404.38;5044314;28;19970;-66
2023/06/24 05:43:47;;;;;;;;;;;;;;;17.54;80.45;102405.50;5048079;28;19917;-65
2023/06/24 05:46:12;;;;;;;;;;;;;;;17.59;80.56;102402.28;5033178;28;19963;-65
2023/06/24 05:48:37;;;;;;;;;;;;;;;17.63;80.38;102403.59;5042643;28;20011;-65
2023/06/24 05:51:02;;;;;;;;;;;;;;;17.69;80.02;102400.25;5040680;28;19920;-66
2023/06/24 05:53:27;;;;;;;;;;;;;;;17.75;80.16;102406.75;5047794;28;19960;-65
2023/06/24 05:55:52;;;;;;;;;;;;;;;17.80;80.00;102402.50;5040494;28;19921;-64
2023/06/24 05:58:17;;;;;;;;;;;;;;;17.84;80.00;102405.66;5041869;28;20278;-65
2023/06/24 06:00:43;;;;;;;;;;;;;;;17.89;79.72;102408.63;5044395;28;20042;-66
2023/06/24 06:03:09;;;;;;;;;;;;;;;17.92;79.23;102414.47;5036416;28;19925;-65
2023/06/24 06:05:34;;;;;;;;;;;;;;;17.94;78.47;102408.94;5043772;28;19939;-66
2023/06/24 06:07:59;;;;;;;;;;;;;;;17.98;77.82;102404.88;5038837;28;20393;-66
2023/06/24 06:10:24;;;;;;;;;;;;;;;18.01;76.98;102399.13;5043381;28;19920;-66
2023/06/24 06:12:50;;;;;;;;;;;;;;;18.05;76.41;102405.00;5042659;28;21452;-66
2023/06/24 06:15:15;;;;;;;;;;;;;;;18.08;76.14;102416.22;5054049;28;20304;-65
2023/06/24 06:17:40;;;;;;;;;;;;;;;18.07;75.89;102409.16;5039811;28;20002;-66
2023/06/24 06:20:06;;;;;;;;;;;;;;;18.08;75.42;102407.31;5045856;28;19913;-66
2023/06/24 06:22:37;;;;;;;;;;;;;;;18.10;75.36;102407.97;5049541;28;19924;-66
2023/06/24 06:25:02;;;;;;;;;;;;;;;18.16;75.44;102412.59;5041010;28;19923;-66
2023/06/24 06:27:27;;;;;;;;;;;;;;;18.20;75.41;102413.91;5037995;28;19917;-65
2023/06/24 06:29:52;;;;;;;;;;;;;;;18.23;75.28;102416.25;5046116;28;19931;-65
2023/06/24 06:32:17;;;;;;;;;;;;;;;18.26;75.18;102421.28;5041143;28;19923;-65
2023/06/24 06:34:43;;;;;;;;;;;;;;;18.36;75.23;102423.69;5041331;28;19921;-66
2023/06/24 06:37:08;;;;;;;;;;;;;;;18.48;75.07;102428.41;5052116;28;20370;-65
2023/06/24 06:39:33;;;;;;;;;;;;;;;18.53;74.98;102412.59;5037083;28;20497;-64
2023/06/24 06:41:58;;;;;;;;;;;;;;;18.62;74.51;102418.75;5046039;28;19920;-66
2023/06/24 06:44:23;;;;;;;;;;;;;;;18.69;74.22;102419.66;5044304;28;20003;-65
2023/06/24 06:46:49;;;;;;;;;;;;;;;18.72;74.00;102424.66;5043014;28;19943;-65
2023/06/24 06:49:14;;;;;;;;;;;;;;;18.77;73.38;102424.94;5046417;28;19920;-65
2023/06/24 06:51:39;;;;;;;;;;;;;;;18.81;73.29;102428.97;5045040;28;19987;-65
2023/06/24 06:54:04;;;;;;;;;;;;;;;18.87;73.67;102428.22;5045148;28;19921;-65
2023/06/24 06:56:29;;;;;;;;;;;;;;;18.93;73.26;102432.00;5052105;28;19924;-64
2023/06/24 06:58:54;;;;;;;;;;;;;;;18.96;72.45;102430.78;5041361;28;19944;-65
2023/06/24 07:01:20;;;;;;;;;;;;;;;19.00;72.29;102438.31;5045730;28;20362;-66
2023/06/24 07:03:45;;;;;;;;;;;;;;;19.05;71.84;102435.03;5039509;28;20516;-65
2023/06/24 07:06:10;;;;;;;;;;;;;;;19.08;71.40;102437.34;5047519;28;20314;-65
2023/06/24 07:08:35;;;;;;;;;;;;;;;19.13;71.43;102437.66;5036505;28;19924;-65
2023/06/24 07:11:01;;;;;;;;;;;;;;;19.18;71.24;102438.75;5040815;28;20432;-65
2023/06/24 07:13:26;;;;;;;;;;;;;;;19.27;71.29;102444.03;5042411;28;19957;-65
2023/06/24 07:15:51;;;;;;;;;;;;;;;19.34;70.81;102445.75;5040106;28;20023;-65
2023/06/24 07:18:16;;;;;;;;;;;;;;;19.36;70.02;102446.41;5042779;28;20440;-65
2023/06/24 07:20:42;;;;;;;;;;;;;;;19.39;69.62;102450.63;5045010;28;19996;-65
2023/06/24 07:23:07;;;;;;;;;;;;;;;19.46;70.05;102446.97;5044731;28;19952;-65
2023/06/24 07:25:32;;;;;;;;;;;;;;;19.52;69.87;102439.13;5043660;28;19982;-65
2023/06/24 07:27:57;;;;;;;;;;;;;;;19.54;69.73;102439.81;5039799;28;19916;-65
2023/06/24 07:30:22;;;;;;;;;;;;;;;19.64;69.55;102449.25;5053570;28;20009;-65
2023/06/24 07:32:48;;;;;;;;;;;;;;;19.70;69.51;102445.81;5044411;28;19917;-65
2023/06/24 07:35:13;;;;;;;;;;;;;;;19.78;69.67;102447.53;5046340;28;19982;-65
2023/06/24 07:37:38;;;;;;;;;;;;;;;19.85;70.05;102445.72;5038916;28;19917;-64
2023/06/24 07:40:05;;;;;;;;;;;;;;;19.90;68.93;102445.97;5041015;28;19920;-65
2023/06/24 07:42:30;;;;;;;;;;;;;;;19.97;68.77;102452.28;5048759;28;19913;-65
2023/06/24 07:44:55;;;;;;;;;;;;;;;19.96;67.62;102444.41;5049746;28;19923;-65
2023/06/24 07:47:21;;;;;;;;;;;;;;;20.00;67.32;102437.59;5037887;28;19967;-64
2023/06/24 07:49:46;;;;;;;;;;;;;;;20.08;67.27;102443.66;5048565;28;20430;-65
2023/06/24 07:52:11;;;;;;;;;;;;;;;20.19;67.10;102446.84;5051381;28;19994;-65
2023/06/24 07:54:36;;;;;;;;;;;;;;;20.22;66.26;102444.59;5047448;28;19916;-64
2023/06/24 07:57:02;;;;;;;;;;;;;;;20.25;66.29;102443.41;5049701;28;20008;-65
2023/06/24 07:59:27;;;;;;;;;;;;;;;20.35;66.08;102439.31;5050163;28;19917;-65
2023/06/24 08:01:52;;;;;;;;;;;;;;;20.45;64.97;102441.69;5046426;28;20008;-66
2023/06/24 08:04:17;;;;;;;;;;;;;;;20.54;64.94;102443.25;5051030;28;19917;-65
2023/06/24 08:06:43;;;;;;;;;;;;;;;20.60;63.61;102444.31;5045292;28;19952;-64
2023/06/24 08:09:08;;;;;;;;;;;;;;;20.65;63.29;102442.69;5046597;28;19916;-65
2023/06/24 08:11:33;;;;;;;;;;;;;;;20.70;62.65;102436.69;5044359;28;19978;-65
2023/06/24 08:13:58;;;;;;;;;;;;;;;20.75;62.65;102436.06;5046246;28;19920;-65
2023/06/24 08:16:23;;;;;;;;;;;;;;;20.84;62.36;102440.31;5048647;28;20521;-65
2023/06/24 08:18:49;;;;;;;;;;;;;;;20.95;62.53;102439.72;5041882;28;19921;-64
2023/06/24 08:21:16;;;;;;;;;;;;;;;21.01;61.63;102441.63;5040558;28;21215;-65
2023/06/24 08:23:41;;;;;;;;;;;;;;;21.12;61.73;102440.22;5047678;28;20337;-64
2023/06/24 08:26:07;;;;;;;;;;;;;;;21.22;61.06;102438.81;5041848;28;19921;-65
2023/06/24 08:28:32;;;;;;;;;;;;;;;21.31;60.05;102439.50;5045575;28;19916;-65
2023/06/24 08:30:57;;;;;;;;;;;;;;;21.39;59.45;102430.34;5045351;28;19936;-65
2023/06/24 08:33:22;;;;;;;;;;;;;;;21.50;59.60;102429.78;5047073;28;20297;-65
2023/06/24 08:35:47;;;;;;;;;;;;;;;21.65;59.60;102435.84;5046409;28;19913;-65
2023/06/24 08:38:13;;;;;;;;;;;;;;;21.72;59.08;102425.88;5050688;28;19939;-65
2023/06/24 08:40:39;;;;;;;;;;;;;;;21.82;59.28;102428.19;5043252;28;19921;-65
2023/06/24 08:43:05;;;;;;;;;;;;;;;21.93;58.42;102424.84;5037224;28;20608;-65
2023/06/24 08:45:30;;;;;;;;;;;;;;;22.10;58.48;102425.31;5041643;28;20545;-66
2023/06/24 08:47:56;;;;;;;;;;;;;;;22.25;57.66;102428.63;5044940;28;19920;-65
2023/06/24 08:50:23;;;;;;;;;;;;;;;22.37;56.85;102431.53;5048788;28;19912;-65
2023/06/24 08:52:50;;;;;;;;;;;;;;;22.44;56.75;102426.94;5049060;28;19959;-66
2023/06/24 08:55:16;;;;;;;;;;;;;;;22.53;57.52;102429.22;5042164;28;19917;-64
2023/06/24 08:57:41;;;;;;;;;;;;;;;22.56;55.79;102427.97;5044783;28;19944;-64
2023/06/24 09:00:10;;;;;;;;;;;;;;;22.60;54.44;102425.69;5050060;28;20366;-66
2023/06/24 09:02:37;;;;;;;;;;;;;;;22.66;53.88;102420.25;5044570;28;20340;-64
2023/06/24 09:05:03;;;;;;;;;;;;;;;22.74;53.94;102421.88;5041332;28;19920;-66
2023/06/24 09:07:29;;;;;;;;;;;;;;;22.75;53.37;102420.84;5045645;28;19999;-66
2023/06/24 09:09:54;;;;;;;;;;;;;;;22.79;53.40;102414.78;5033433;28;20000;-65
2023/06/24 09:12:19;;;;;;;;;;;;;;;22.96;53.46;102417.06;5049705;28;19913;-66
2023/06/24 09:14:48;;;;;;;;;;;;;;;23.10;53.21;102413.22;5049839;28;19917;-65
2023/06/24 09:17:13;;;;;;;;;;;;;;;23.14;52.62;102409.91;5043563;28;19921;-66
2023/06/24 09:19:39;;;;;;;;;;;;;;;23.20;51.93;102412.78;5046907;28;20047;-65
2023/06/24 09:22:05;;;;;;;;;;;;;;;23.27;52.44;102421.72;5042619;28;19912;-66
2023/06/24 09:24:31;;;;;;;;;;;;;;;23.48;52.04;102415.97;5040345;28;20559;-65
2023/06/24 09:26:59;;;;;;;;;;;;;;;23.53;52.28;102408.00;5048483;28;19913;-65
2023/06/24 09:29:25;;;;;;;;;;;;;;;23.62;50.87;102411.31;5051090;28;19920;-65
2023/06/24 09:31:52;;;;;;;;;;;;;;;23.63;50.92;102404.81;5046003;28;20404;-66
2023/06/24 09:34:18;;;;;;;;;;;;;;;23.74;51.06;102401.44;5044015;28;19921;-65
2023/06/24 09:36:44;;;;;;;;;;;;;;;24.02;51.90;102392.84;5045999;28;20357;-65
2023/06/24 09:39:10;;;;;;;;;;;;;;;24.12;50.44;102387.75;5040201;28;19917;-64
2023/06/24 09:41:36;;;;;;;;;;;;;;;24.15;50.12;102398.16;5042610;28;19927;-65
2023/06/24 09:44:01;;;;;;;;;;;;;;;24.19;50.58;102393.09;5044336;28;19933;-66
2023/06/24 09:46:27;;;;;;;;;;;;;;;24.27;50.31;102393.63;5042045;28;19939;-66
2023/06/24 09:48:53;;;;;;;;;;;;;;;24.31;49.94;102389.47;5038793;28;20005;-66
2023/06/24 09:51:18;;;;;;;;;;;;;;;24.44;50.43;102393.09;5042001;28;20345;-66
2023/06/24 09:53:44;;;;;;;;;;;;;;;24.55;49.76;102390.44;5045070;28;19921;-66
2023/06/24 09:56:09;;;;;;;;;;;;;;;24.64;49.64;102382.84;5048444;28;20301;-66
2023/06/24 09:58:40;;;;;;;;;;;;;;;24.69;49.60;102388.44;5042134;28;19924;-66
2023/06/24 10:01:05;;;;;;;;;;;;;;;24.60;48.77;102381.66;5044831;28;19917;-65
2023/06/24 10:03:32;;;;;;;;;;;;;;;24.54;49.24;102387.97;5047276;28;20024;-65
2023/06/24 10:05:57;;;;;;;;;;;;;;;24.61;49.50;102384.13;5048392;28;19963;-66
2023/06/24 10:08:23;;;;;;;;;;;;;;;24.68;49.76;102386.78;5047907;28;19940;-66
2023/06/24 10:10:48;;;;;;;;;;;;;;;24.82;49.35;102384.72;5040164;28;19967;-66
2023/06/24 10:13:13;;;;;;;;;;;;;;;25.03;49.69;102389.72;5047229;28;19923;-66
2023/06/24 10:15:38;;;;;;;;;;;;;;;25.15;49.55;102385.13;5048612;28;19921;-66
2023/06/24 10:18:23;;;;;;;;;;;;;;;25.32;49.18;102385.34;5044261;28;20544;-66
2023/06/24 10:20:48;;;;;;;;;;;;;;;25.44;49.76;102388.09;5047111;28;19913;-65
2023/06/24 10:23:14;;;;;;;;;;;;;;;25.44;48.55;102388.09;5053269;28;19920;-66
2023/06/24 10:25:39;;;;;;;;;;;;;;;25.39;47.83;102388.78;5049746;28;20047;-65
2023/06/24 10:28:04;;;;;;;;;;;;;;;25.45;47.52;102382.44;5046077;28;20377;-66
2023/06/24 10:30:29;;;;;;;;;;;;;;;25.57;47.29;102382.47;5043541;28;19913;-66
2023/06/24 10:32:54;;;;;;;;;;;;;;;25.68;47.39;102381.66;5039246;28;19913;-66
2023/06/24 10:35:24;;;;;;;;;;;;;;;25.78;46.69;102378.41;5046125;28;19980;-66
2023/06/24 10:38:00;;;;;;;;;;;;;;;25.88;46.10;102382.19;5052385;28;19920;-66
2023/06/24 10:40:36;;;;;;;;;;;;;;;25.85;46.68;102377.22;5039012;28;19920;-65
2023/06/24 10:43:01;;;;;;;;;;;;;;;25.94;45.65;102373.06;5035701;28;19967;-65
2023/06/24 10:45:26;;;;;;;;;;;;;;;26.05;44.85;102371.44;5039111;28;20007;-66
2023/06/24 10:47:59;;;;;;;;;;;;;;;26.10;44.45;102368.81;5047662;28;20042;-66
2023/06/24 10:50:24;;;;;;;;;;;;;;;26.27;44.81;102370.81;5044350;28;19970;-66
2023/06/24 10:52:55;;;;;;;;;;;;;;;26.43;44.89;102370.13;5041156;28;20003;-66
2023/06/24 10:55:21;;;;;;;;;;;;;;;26.37;44.34;102371.09;5035279;28;19927;-66
2023/06/24 10:57:46;;;;;;;;;;;;;;;26.27;44.42;102370.81;5047134;28;19913;-66
2023/06/24 11:00:12;;;;;;;;;;;;;;;26.23;43.94;102374.03;5045835;28;19913;-66
2023/06/24 11:02:37;;;;;;;;;;;;;;;26.43;43.30;102370.13;5045828;28;19912;-66
2023/06/24 11:05:03;;;;;;;;;;;;;;;26.58;43.83;102365.00;5049440;28;20006;-66
2023/06/24 11:07:36;;;;;;;;;;;;;;;26.73;44.31;102359.88;5040428;28;19952;-66
2023/06/24 11:10:06;;;;;;;;;;;;;;;26.88;44.13;102355.78;5041046;28;20294;-65
2023/06/24 11:12:32;;;;;;;;;;;;;;;26.90;43.81;102359.13;5048065;28;20007;-67
2023/06/24 11:14:58;;;;;;;;;;;;;;;26.84;42.75;102356.28;5045379;28;20374;-66
2023/06/24 11:17:23;;;;;;;;;;;;;;;26.92;42.76;102346.06;5048812;28;20066;-67
2023/06/24 11:19:49;;;;;;;;;;;;;;;27.01;43.22;102350.91;5043055;28;20425;-66
2023/06/24 11:22:15;;;;;;;;;;;;;;;26.96;42.04;102347.25;5045434;28;19990;-66
2023/06/24 11:24:41;;;;;;;;;;;;;;;26.98;42.02;102345.09;5046031;28;20386;-67
2023/06/24 11:27:06;;;;;;;;;;;;;;;27.16;43.08;102343.00;5038607;28;20046;-67
2023/06/24 11:29:32;;;;;;;;;;;;;;;27.37;43.81;102341.47;5049410;28;20338;-65
2023/06/24 11:31:57;;;;;;;;;;;;;;;27.56;42.67;102333.88;5044278;28;20312;-66
2023/06/24 11:34:23;;;;;;;;;;;;;;;27.71;41.54;102344.25;5044427;28;19935;-66
2023/06/24 11:36:48;;;;;;;;;;;;;;;27.71;41.83;102333.31;5055672;28;19966;-66
2023/06/24 11:39:23;;;;;;;;;;;;;;;27.63;41.94;102331.84;5046152;28;19927;-67
2023/06/24 11:41:49;;;;;;;;;;;;;;;27.59;42.20;102329.84;5056249;28;19920;-66
2023/06/24 11:44:14;;;;;;;;;;;;;;;27.61;41.81;102333.97;5050040;28;19917;-65
2023/06/24 11:46:39;;;;;;;;;;;;;;;27.68;42.48;102329.19;5050959;28;19913;-67
2023/06/24 11:49:05;;;;;;;;;;;;;;;27.81;41.28;102327.22;5041706;28;19923;-67
2023/06/24 11:51:30;;;;;;;;;;;;;;;27.93;41.54;102326.03;5045718;28;20004;-66
2023/06/24 11:53:58;;;;;;;;;;;;;;;28.00;41.65;102321.22;5049449;28;19925;-66
2023/06/24 11:56:33;;;;;;;;;;;;;;;28.02;41.42;102310.03;5051230;28;19952;-67
2023/06/24 11:58:58;;;;;;;;;;;;;;;28.02;41.48;102315.50;5044729;28;19924;-66
2023/06/24 12:01:29;;;;;;;;;;;;;;;27.90;40.70;102314.78;5050417;28;19917;-67
2023/06/24 12:03:55;;;;;;;;;;;;;;;27.77;39.98;102310.50;5041645;28;19917;-66
2023/06/24 12:06:20;;;;;;;;;;;;;;;27.85;40.37;102306.53;5050773;28;19936;-66
2023/06/24 12:08:46;;;;;;;;;;;;;;;27.93;40.89;102312.38;5038372;28;20024;-67
2023/06/24 12:11:11;;;;;;;;;;;;;;;27.88;39.90;102311.47;5043847;28;20365;-66
2023/06/24 12:13:36;;;;;;;;;;;;;;;27.79;40.50;102311.09;5047867;28;20111;-66
2023/06/24 12:16:01;;;;;;;;;;;;;;;27.84;41.09;102305.69;5056536;28;20401;-67
2023/06/24 12:18:27;;;;;;;;;;;;;;;28.06;41.29;102305.75;5040501;28;20024;-67
2023/06/24 12:20:52;;;;;;;;;;;;;;;28.20;40.34;102307.03;5048308;28;19998;-67
2023/06/24 12:23:17;;;;;;;;;;;;;;;28.22;40.28;102302.13;5040031;28;19951;-67
2023/06/24 12:25:42;;;;;;;;;;;;;;;28.31;41.02;102295.16;5046685;28;20382;-66
2023/06/24 12:28:08;;;;;;;;;;;;;;;28.37;39.66;102305.09;5046916;28;20406;-67
2023/06/24 12:30:33;;;;;;;;;;;;;;;28.31;39.67;102295.16;5045632;28;19920;-66